Weather History for Sulphur Springs, TX

Change the Weather History Date:

Sunday, November 6, 2011

  Actual Average (KGVT) Record (KGVT)
Temperature  
Mean Temperature 69 °F -  
Max Temperature 78 °F 65 °F 78 °F (2001)
Min Temperature 60 °F 51 °F 32 °F (2010)
Cooling Degree Days 4    
Growing Degree Days 19 (Base 50)    
Moisture  
Dew Point 56 °F    
Average Humidity 64    
Maximum Humidity 77    
Minimum Humidity 51    
Precipitation  
Precipitation 0.00 in - - ()
Sea Level Pressure  
Sea Level Pressure 30.02 in    
Wind  
Wind Speed 10 mph (SSE)    
Max Wind Speed 17 mph    
Max Gust Speed 22 mph    
Visibility 10 miles    
Events      
Averages and records for this station are not official NWS values.
T = Trace of Precipitation, MM = Missing Value Source: NWS Daily Summary

Daily Weather History Graph

Daily Weather History Graph

Search for Another Location

Airport:

Trip Planner

Search our weather history database for the weather conditions in past years. The results will help you decide how hot, cold, wet, or windy it might be!

Date:

Astronomy

Nov. 06, 2011 Rise Set
Actual Time 6:44 AM CST 5:26 PM CST
Civil Twilight 6:19 AM CST 5:52 PM CST
Nautical Twilight 5:49 AM CST 6:22 PM CST
Astronomical Twilight 5:20 AM CST 6:51 PM CST
Moon 3:02 PM CST (11/6) 3:02 AM CST (11/6)
Length of Visible Light 11h 33m
Length of Day
10h 41m
Waxing Gibbous, 86% of the Moon is Illuminated
Nov 6
Waxing Gibbous
Nov 10
Full
Nov 18
Last Quarter
Nov 25
New
Dec 2
First Quarter

Hourly Weather History & Observations

Time (CST) Temp. Dew Point Humidity Pressure Visibility Wind Dir Wind Speed Gust Speed Precip Events Conditions
12:15 AM 60.8 °F 46.4 °F 59% 29.97 in 10.0 mi SSE 10.4 mph 16.1 mph N/A   Overcast
12:35 AM 60.8 °F 48.2 °F 63% 29.97 in 10.0 mi SSE 11.5 mph - N/A   Mostly Cloudy
12:55 AM 60.8 °F 48.2 °F 63% 29.97 in 10.0 mi SSE 9.2 mph - N/A   Scattered Clouds
1:15 AM 60.8 °F 50.0 °F 68% 29.97 in 10.0 mi SSE 9.2 mph - N/A   Scattered Clouds
1:35 AM 60.8 °F 50.0 °F 68% 29.97 in 10.0 mi SSE 11.5 mph 16.1 mph N/A   Overcast
1:55 AM 62.6 °F 50.0 °F 63% 29.97 in 10.0 mi SSE 11.5 mph - N/A   Overcast
1:15 AM 62.6 °F 50.0 °F 63% 29.97 in 10.0 mi SSE 11.5 mph - N/A   Overcast
1:35 AM 62.6 °F 51.8 °F 68% 29.98 in 10.0 mi SSE 12.7 mph - N/A   Overcast
1:55 AM 62.6 °F 51.8 °F 68% 29.98 in 10.0 mi SSE 9.2 mph 16.1 mph N/A   Overcast
2:15 AM 62.6 °F 51.8 °F 68% 29.98 in 10.0 mi SE 9.2 mph - N/A   Overcast
2:35 AM 62.6 °F 51.8 °F 68% 29.99 in 10.0 mi SSE 8.1 mph - N/A   Overcast
2:55 AM 60.8 °F 51.8 °F 72% 29.99 in 10.0 mi SSE 9.2 mph - N/A   Mostly Cloudy
3:15 AM 60.8 °F 51.8 °F 72% 29.99 in 10.0 mi SSE 8.1 mph - N/A   Mostly Cloudy
3:35 AM 60.8 °F 53.6 °F 77% 30.01 in 10.0 mi SSE 5.8 mph - N/A   Overcast
3:55 AM 62.6 °F 53.6 °F 72% 30.01 in 10.0 mi Calm Calm - N/A   Overcast
4:15 AM 62.6 °F 53.6 °F 72% 30.02 in 10.0 mi Calm Calm - N/A   Overcast
4:35 AM 60.8 °F 53.6 °F 77% 30.02 in 10.0 mi SE 3.5 mph - N/A   Overcast
4:55 AM 60.8 °F 53.6 °F 77% 30.02 in 10.0 mi SE 5.8 mph - N/A   Overcast
5:15 AM 62.6 °F 53.6 °F 72% 30.03 in 10.0 mi SE 4.6 mph - N/A   Overcast
5:55 AM 62.6 °F 53.6 °F 72% 30.04 in 10.0 mi SE 5.8 mph - N/A   Overcast
6:15 AM 62.6 °F 55.4 °F 77% 30.04 in 10.0 mi SE 8.1 mph - N/A   Overcast
6:35 AM 62.6 °F 55.4 °F 77% 30.04 in 10.0 mi SE 8.1 mph - N/A   Overcast
6:55 AM 62.6 °F 55.4 °F 77% 30.05 in 10.0 mi SSE 9.2 mph - N/A   Mostly Cloudy
7:15 AM 62.6 °F 55.4 °F 77% 30.05 in 10.0 mi SE 6.9 mph - N/A   Overcast
7:35 AM 62.6 °F 55.4 °F 77% 30.06 in 10.0 mi SE 8.1 mph - N/A   Overcast
7:55 AM 62.6 °F 55.4 °F 77% 30.07 in 10.0 mi SSE 9.2 mph 16.1 mph N/A   Overcast
8:15 AM 62.6 °F 55.4 °F 77% 30.07 in 10.0 mi SSE 11.5 mph - N/A   Overcast
8:35 AM 64.4 °F 55.4 °F 73% 30.07 in 10.0 mi SSE 11.5 mph 16.1 mph N/A   Overcast
8:55 AM 64.4 °F 55.4 °F 73% 30.07 in 10.0 mi SSE 9.2 mph - N/A   Mostly Cloudy
9:15 AM 66.2 °F 55.4 °F 68% 30.07 in 10.0 mi South 9.2 mph 17.3 mph N/A   Mostly Cloudy
9:35 AM 68.0 °F 55.4 °F 64% 30.07 in 10.0 mi SSE 11.5 mph 16.1 mph N/A   Mostly Cloudy
9:55 AM 68.0 °F 55.4 °F 64% 30.08 in 10.0 mi SSE 12.7 mph 18.4 mph N/A   Mostly Cloudy
10:15 AM 69.8 °F 55.4 °F 60% 30.08 in 10.0 mi SSE 12.7 mph 18.4 mph N/A   Mostly Cloudy
10:35 AM 69.8 °F 57.2 °F 64% 30.08 in 10.0 mi SSE 12.7 mph 21.9 mph N/A   Overcast
10:55 AM 71.6 °F 57.2 °F 60% 30.07 in 10.0 mi SSE 13.8 mph - N/A   Mostly Cloudy
11:15 AM 71.6 °F 57.2 °F 60% 30.07 in 10.0 mi SSE 11.5 mph - N/A   Mostly Cloudy
11:35 AM 73.4 °F 57.2 °F 57% 30.06 in 10.0 mi SSE 13.8 mph 19.6 mph N/A   Scattered Clouds
11:55 AM 75.2 °F 59.0 °F 57% 30.05 in 10.0 mi SSE 17.3 mph 21.9 mph N/A   Scattered Clouds
12:15 PM 73.4 °F 59.0 °F 61% 30.04 in 10.0 mi South 12.7 mph 21.9 mph N/A   Scattered Clouds
12:35 PM 75.2 °F 59.0 °F 57% 30.03 in 10.0 mi South 13.8 mph 19.6 mph N/A   Clear
12:55 PM 75.2 °F 59.0 °F 57% 30.02 in 10.0 mi South 15.0 mph 20.7 mph N/A   Clear
1:15 PM 77.0 °F 59.0 °F 54% 30.01 in 10.0 mi South 15.0 mph 19.6 mph N/A   Scattered Clouds
1:35 PM 78.8 °F 59.0 °F 51% 30.01 in 10.0 mi South 12.7 mph 18.4 mph N/A   Scattered Clouds
2:15 PM 77.0 °F 59.0 °F 54% 30.00 in 10.0 mi SSE 13.8 mph - N/A   Mostly Cloudy
2:35 PM 77.0 °F 59.0 °F 54% 30.00 in 10.0 mi SSE 15.0 mph 18.4 mph N/A   Mostly Cloudy
2:55 PM 77.0 °F 59.0 °F 54% 30.00 in 10.0 mi South 11.5 mph - N/A   Scattered Clouds
3:15 PM 77.0 °F 59.0 °F 54% 30.00 in 10.0 mi South 9.2 mph 16.1 mph N/A   Scattered Clouds
3:35 PM 77.0 °F 59.0 °F 54% 30.00 in 10.0 mi South 8.1 mph - N/A   Scattered Clouds
3:55 PM 77.0 °F 59.0 °F 54% 30.00 in 10.0 mi South 9.2 mph - N/A   Scattered Clouds
4:15 PM 77.0 °F 59.0 °F 54% 30.01 in 10.0 mi South 11.5 mph 16.1 mph N/A   Scattered Clouds
4:35 PM 77.0 °F 59.0 °F 54% 30.00 in 10.0 mi South 10.4 mph 19.6 mph N/A   Scattered Clouds
4:55 PM 77.0 °F 59.0 °F 54% 30.01 in 10.0 mi South 8.1 mph - N/A   Scattered Clouds
5:15 PM 77.0 °F 59.0 °F 54% 30.01 in 10.0 mi SSE 8.1 mph - N/A   Scattered Clouds
5:35 PM 75.2 °F 59.0 °F 57% 30.01 in 10.0 mi SSE 6.9 mph - N/A   Scattered Clouds
5:55 PM 73.4 °F 59.0 °F 61% 30.02 in 10.0 mi SSE 8.1 mph - N/A   Mostly Cloudy
6:15 PM 73.4 °F 59.0 °F 61% 30.02 in 10.0 mi SSE 9.2 mph - N/A   Mostly Cloudy
6:35 PM 73.4 °F 59.0 °F 61% 30.03 in 10.0 mi SE 8.1 mph - N/A   Scattered Clouds
6:55 PM 73.4 °F 59.0 °F 61% 30.03 in 10.0 mi SE 9.2 mph - N/A   Scattered Clouds
7:15 PM 71.6 °F 59.0 °F 64% 30.03 in 10.0 mi SE 5.8 mph - N/A   Scattered Clouds
7:35 PM 71.6 °F 59.0 °F 64% 30.03 in 10.0 mi SE 6.9 mph - N/A   Scattered Clouds
7:55 PM 71.6 °F 59.0 °F 64% 30.04 in 10.0 mi SE 8.1 mph - N/A   Scattered Clouds
8:15 PM 71.6 °F 59.0 °F 64% 30.04 in 10.0 mi SE 9.2 mph - N/A   Scattered Clouds
8:35 PM 71.6 °F 59.0 °F 64% 30.04 in 10.0 mi SSE 10.4 mph - N/A   Scattered Clouds
8:55 PM 71.6 °F 59.0 °F 64% 30.05 in 10.0 mi SSE 12.7 mph 18.4 mph N/A   Scattered Clouds
9:15 PM 71.6 °F 59.0 °F 64% 30.06 in 10.0 mi SSE 9.2 mph 17.3 mph N/A   Scattered Clouds
9:35 PM 69.8 °F 59.0 °F 68% 30.06 in 10.0 mi SSE 12.7 mph 19.6 mph N/A   Mostly Cloudy
9:55 PM 69.8 °F 59.0 °F 68% 30.06 in 10.0 mi SSE 11.5 mph 17.3 mph N/A   Scattered Clouds
10:15 PM 69.8 °F 59.0 °F 68% 30.06 in 10.0 mi SE 11.5 mph - N/A   Scattered Clouds
10:35 PM 69.8 °F 59.0 °F 68% 30.06 in 10.0 mi SSE 10.4 mph - N/A   Mostly Cloudy
10:55 PM 69.8 °F 59.0 °F 68% 30.06 in 10.0 mi SSE 10.4 mph - N/A   Mostly Cloudy